Time;durP1;ratioP1;P1;durP2;ratioP2;P2;SDS_P1;SDS_P2;PMS_P1;PMS_P2;Temp;Humidity;BMP_temperature;BMP_pressure;BME280_temperature;BME280_humidity;BME280_pressure;Samples;Min_cycle;Max_cycle;Signal;HPM_P1;HPM_P2
2022/05/18 00:00:59;;;;;;;1.20;1.00;;;;;;;8.89;37.76;101295.02;109314;1279;22978;-76
2022/05/18 00:03:33;;;;;;;1.90;1.20;;;;;;;8.92;38.06;101297.14;109162;1280;23047;-76
2022/05/18 00:06:00;;;;;;;1.10;1.00;;;;;;;8.89;38.15;101296.77;109170;1281;23484;-76
2022/05/18 00:08:28;;;;;;;1.80;1.20;;;;;;;8.82;38.15;101303.01;109053;1280;22464;-75
2022/05/18 00:10:55;;;;;;;2.50;1.50;;;;;;;8.79;38.25;101302.79;109064;1279;23222;-77
2022/05/18 00:13:22;;;;;;;1.50;1.20;;;;;;;8.80;38.52;101306.13;108943;1281;22377;-75
2022/05/18 00:15:48;;;;;;;1.70;1.00;;;;;;;8.76;38.54;101309.60;109182;1274;22493;-77
2022/05/18 00:18:15;;;;;;;2.20;1.20;;;;;;;8.65;38.64;101313.67;109261;1280;22467;-76
2022/05/18 00:20:42;;;;;;;2.10;1.30;;;;;;;8.62;38.89;101308.02;109153;1278;23022;-76
2022/05/18 00:23:09;;;;;;;2.00;1.30;;;;;;;8.63;39.15;101313.99;109076;1279;22377;-77
2022/05/18 00:25:41;;;;;;;2.10;1.60;;;;;;;8.60;39.18;101312.20;109038;1279;23687;-79
2022/05/18 00:28:08;;;;;;;2.90;1.90;;;;;;;8.57;39.33;101316.20;109102;1280;22461;-75
2022/05/18 00:30:38;;;;;;;1.40;1.30;;;;;;;8.57;39.59;101316.02;109201;1280;23096;-77
2022/05/18 00:33:07;;;;;;;4.30;1.20;;;;;;;8.58;39.73;101319.88;109058;1280;22304;-79
2022/05/18 00:35:35;;;;;;;1.50;1.00;;;;;;;8.53;39.76;101323.48;108934;1279;22323;-77
2022/05/18 00:38:03;;;;;;;3.10;1.30;;;;;;;8.50;40.02;101327.30;109242;1278;22560;-74
2022/05/18 00:40:30;;;;;;;3.10;1.20;;;;;;;8.53;40.23;101328.04;109122;1278;22185;-76
2022/05/18 00:42:57;;;;;;;2.10;1.20;;;;;;;8.53;40.26;101331.38;109502;1273;22536;-77
2022/05/18 00:45:25;;;;;;;2.90;1.70;;;;;;;8.48;40.30;101333.23;109783;1274;22329;-77
2022/05/18 00:47:52;;;;;;;2.30;1.40;;;;;;;8.36;40.41;101336.05;109599;1274;22368;-78
2022/05/18 00:50:23;;;;;;;2.30;1.30;;;;;;;8.33;40.53;101344.07;109598;1274;22458;-76
2022/05/18 00:53:06;;;;;;;1.30;1.20;;;;;;;8.34;40.70;101350.06;109630;1273;22510;-76
2022/05/18 00:55:37;;;;;;;1.40;1.20;;;;;;;8.30;40.91;101352.09;109579;1274;23169;-75
2022/05/18 00:58:15;;;;;;;1.20;1.10;;;;;;;8.25;41.18;101357.64;109671;1274;22340;-75
2022/05/18 01:00:42;;;;;;;3.20;1.10;;;;;;;8.28;41.26;101358.39;109670;1274;22419;-76
2022/05/18 01:03:23;;;;;;;6.40;1.20;;;;;;;8.33;41.36;101366.90;109532;1273;22450;-76
2022/05/18 01:05:55;;;;;;;3.70;1.30;;;;;;;8.35;41.52;101364.81;109672;1273;22490;-78
2022/05/18 01:08:35;;;;;;;2.00;1.40;;;;;;;8.35;41.56;101363.06;109552;1274;23059;-79
2022/05/18 01:11:01;;;;;;;1.90;1.30;;;;;;;8.25;41.75;101365.01;109143;1280;22370;-76
2022/05/18 01:13:28;;;;;;;2.00;1.30;;;;;;;8.24;42.02;101368.33;108923;1281;22597;-76
2022/05/18 01:15:55;;;;;;;2.30;1.30;;;;;;;8.16;42.17;101373.30;109077;1281;22531;-77
2022/05/18 01:18:22;;;;;;;2.00;1.10;;;;;;;8.10;42.53;101375.29;109153;1281;22983;-76
2022/05/18 01:20:48;;;;;;;4.70;1.20;;;;;;;7.99;42.70;101374.91;109160;1279;23116;-76
2022/05/18 01:23:42;;;;;;;3.90;1.40;;;;;;;8.01;42.92;101379.00;108382;1284;23211;-76
2022/05/18 01:26:17;;;;;;;4.30;1.30;;;;;;;8.00;43.11;101379.85;108374;1287;22396;-77
2022/05/18 01:28:59;;;;;;;1.60;1.30;;;;;;;8.00;43.38;101378.45;108514;1281;22420;-76
2022/05/18 01:31:50;;;;;;;3.10;1.40;;;;;;;7.96;43.67;101377.51;108521;1283;22502;-76
2022/05/18 01:34:21;;;;;;;3.40;1.50;;;;;;;7.89;43.75;101388.09;108847;1283;23098;-77
2022/05/18 01:36:48;;;;;;;1.20;1.10;;;;;;;7.89;44.00;101388.61;108636;1284;22505;-78
2022/05/18 01:39:30;;;;;;;1.00;0.90;;;;;;;7.88;44.13;101392.09;108754;1284;22425;-78
2022/05/18 01:42:06;;;;;;;2.40;1.30;;;;;;;7.87;44.18;101396.11;109137;1279;22409;-77
2022/05/18 01:44:38;;;;;;;1.60;1.20;;;;;;;7.87;44.35;101397.52;109051;1280;22333;-79
2022/05/18 01:47:06;;;;;;;2.40;1.30;;;;;;;7.89;44.41;101391.60;109126;1278;23408;-77
2022/05/18 01:49:36;;;;;;;4.60;1.40;;;;;;;7.86;44.40;101392.41;109102;1280;22198;-76
2022/05/18 01:52:03;;;;;;;2.00;1.10;;;;;;;7.78;44.55;101396.65;109139;1278;23196;-75
2022/05/18 01:54:29;;;;;;;1.30;1.10;;;;;;;7.75;44.56;101394.15;109129;1278;22453;-75
2022/05/18 01:56:57;;;;;;;4.60;1.60;;;;;;;7.74;44.69;101396.58;109620;1273;22471;-74
2022/05/18 01:59:23;;;;;;;1.80;1.40;;;;;;;7.68;44.74;101400.52;109777;1273;22422;-74
2022/05/18 02:01:50;;;;;;;2.50;1.30;;;;;;;7.45;44.82;101403.02;109663;1273;22377;-76
2022/05/18 02:04:16;;;;;;;3.70;1.60;;;;;;;7.35;45.25;101410.52;109631;1273;22322;-76
2022/05/18 02:06:42;;;;;;;2.70;1.30;;;;;;;7.32;45.51;101411.90;108994;1281;22756;-84
2022/05/18 02:09:09;;;;;;;2.70;1.10;;;;;;;7.33;45.58;101402.80;108903;1281;22379;-77
2022/05/18 02:11:35;;;;;;;2.20;1.80;;;;;;;7.28;45.86;101406.02;108777;1281;22337;-76
2022/05/18 02:14:02;;;;;;;3.40;1.60;;;;;;;7.30;46.19;101414.84;108915;1281;22916;-78
2022/05/18 02:16:28;;;;;;;3.00;1.50;;;;;;;7.35;46.16;101417.05;109028;1280;22327;-77
2022/05/18 02:18:55;;;;;;;3.60;1.50;;;;;;;7.37;46.31;101415.32;109002;1280;23119;-77
2022/05/18 02:21:21;;;;;;;4.70;1.20;;;;;;;7.37;46.20;101420.58;108905;1281;23078;-77
2022/05/18 02:23:48;;;;;;;4.20;1.30;;;;;;;7.28;46.36;101415.14;108808;1281;23150;-77
2022/05/18 02:26:17;;;;;;;2.10;1.30;;;;;;;7.30;46.59;101418.14;109163;1279;22460;-76
2022/05/18 02:28:44;;;;;;;4.40;1.60;;;;;;;7.30;46.68;101421.31;108990;1281;22455;-75
2022/05/18 02:31:11;;;;;;;4.10;1.40;;;;;;;7.31;46.74;101425.19;109235;1273;22334;-74
2022/05/18 02:33:38;;;;;;;4.20;1.40;;;;;;;7.32;46.87;101429.95;109270;1277;22321;-74
2022/05/18 02:36:10;;;;;;;1.80;1.40;;;;;;;7.34;47.05;101429.45;109242;1277;22392;-74
2022/05/18 02:38:38;;;;;;;1.80;1.20;;;;;;;7.35;47.12;101432.27;109198;1277;23061;-73
2022/05/18 02:41:04;;;;;;;2.80;1.30;;;;;;;7.36;47.24;101429.32;109287;1277;22497;-76
2022/05/18 02:43:31;;;;;;;2.60;1.30;;;;;;;7.36;47.24;101430.38;109262;1276;22633;-75
2022/05/18 02:46:07;;;;;;;2.40;1.20;;;;;;;7.35;47.37;101436.84;109146;1277;22512;-74
2022/05/18 02:48:34;;;;;;;2.70;1.50;;;;;;;7.37;47.41;101439.67;109360;1277;22398;-75
2022/05/18 02:51:00;;;;;;;3.50;1.30;;;;;;;7.37;47.42;101442.49;109375;1273;22464;-78
2022/05/18 02:53:27;;;;;;;1.80;1.20;;;;;;;7.36;47.47;101445.43;109296;1277;22448;-78
2022/05/18 02:56:05;;;;;;;2.90;1.60;;;;;;;7.35;47.60;101452.08;109506;1277;22530;-78
2022/05/18 02:58:54;;;;;;;2.50;1.50;;;;;;;7.32;47.52;101459.73;109532;1277;22362;-75
2022/05/18 03:01:24;;;;;;;4.20;1.50;;;;;;;7.24;47.86;101464.80;109384;1277;22401;-76
2022/05/18 03:03:52;;;;;;;2.20;1.30;;;;;;;7.22;48.03;101466.69;109351;1276;22722;-75
2022/05/18 03:06:22;;;;;;;3.10;1.10;;;;;;;7.24;48.19;101469.90;108741;1284;23203;-76
2022/05/18 03:08:50;;;;;;;2.60;1.60;;;;;;;7.23;48.26;101468.98;108743;1283;22437;-78
2022/05/18 03:11:18;;;;;;;3.30;1.50;;;;;;;7.17;48.37;101471.69;108625;1278;23069;-76
2022/05/18 03:13:45;;;;;;;4.70;1.60;;;;;;;7.11;48.47;101477.67;109039;1278;22379;-76
2022/05/18 03:16:11;;;;;;;4.40;1.70;;;;;;;7.00;48.69;101482.14;109008;1278;22337;-76
2022/05/18 03:18:38;;;;;;;2.90;1.30;;;;;;;6.93;49.01;101489.34;109022;1278;22490;-76
2022/05/18 03:23:49;;;;;;;2.60;1.40;;;;;;;6.92;49.37;101496.85;108680;1282;22458;-78
2022/05/18 03:26:19;;;;;;;4.10;1.90;;;;;;;6.87;49.49;101503.74;108580;1284;22423;-75
2022/05/18 03:28:48;;;;;;;2.10;1.10;;;;;;;6.88;49.70;101507.79;108406;1281;22468;-75
2022/05/18 03:31:15;;;;;;;2.60;1.40;;;;;;;6.84;49.90;101512.61;108850;1277;23071;-75
2022/05/18 03:33:41;;;;;;;3.50;1.40;;;;;;;6.82;50.18;101509.38;109537;1276;22274;-76
2022/05/18 03:36:09;;;;;;;3.30;1.40;;;;;;;6.79;50.20;101517.90;109302;1276;22506;-76
2022/05/18 03:38:35;;;;;;;3.40;1.40;;;;;;;6.79;50.50;101518.59;109337;1274;23256;-74
2022/05/18 03:41:02;;;;;;;2.30;1.50;;;;;;;6.80;50.66;101525.63;109694;1272;22349;-74
2022/05/18 03:43:29;;;;;;;4.10;1.70;;;;;;;6.84;50.82;101528.70;109611;1272;22399;-76
2022/05/18 03:45:55;;;;;;;3.10;1.70;;;;;;;6.91;50.98;101532.02;109186;1280;22434;-75
2022/05/18 03:48:22;;;;;;;5.60;1.40;;;;;;;6.96;50.87;101535.48;109198;1280;22401;-74
2022/05/18 03:50:49;;;;;;;2.70;1.30;;;;;;;6.99;51.11;101539.23;109308;1279;22220;-74
2022/05/18 03:53:16;;;;;;;1.80;1.40;;;;;;;7.05;51.22;101538.66;108671;1281;22458;-74
2022/05/18 03:55:44;;;;;;;3.50;1.90;;;;;;;7.10;50.99;101539.30;108498;1283;22408;-77
2022/05/18 03:58:12;;;;;;;4.40;1.50;;;;;;;7.13;51.02;101538.69;108411;1284;23145;-76
2022/05/18 04:00:41;;;;;;;2.60;1.70;;;;;;;7.10;51.00;101544.20;107949;1289;22440;-82
2022/05/18 04:03:08;;;;;;;1.60;1.40;;;;;;;7.05;51.06;101548.13;107345;1290;23429;-79
2022/05/18 04:05:37;;;;;;;2.60;1.40;;;;;;;6.94;51.26;101558.56;107981;1289;22441;-76
2022/05/18 04:08:05;;;;;;;4.40;1.90;;;;;;;6.99;51.66;101566.35;107936;1289;22501;-76
2022/05/18 04:10:31;;;;;;;4.00;1.80;;;;;;;7.04;51.74;101569.82;107732;1284;22512;-75
2022/05/18 04:12:58;;;;;;;8.00;1.50;;;;;;;7.08;51.68;101574.98;108436;1284;22421;-74
2022/05/18 04:15:24;;;;;;;3.70;1.50;;;;;;;7.11;51.76;101576.29;108346;1284;22400;-77
2022/05/18 04:17:51;;;;;;;3.80;1.70;;;;;;;7.19;51.83;101578.59;108371;1286;22379;-78
2022/05/18 04:20:21;;;;;;;3.60;1.70;;;;;;;7.23;51.69;101577.28;108341;1284;22661;-79
2022/05/18 04:22:49;;;;;;;2.10;1.60;;;;;;;7.24;51.69;101580.29;108669;1283;22464;-86
2022/05/18 04:25:20;;;;;;;5.20;1.50;;;;;;;7.24;51.77;101582.73;108803;1280;22446;-80
2022/05/18 04:27:47;;;;;;;3.50;1.50;;;;;;;7.19;51.95;101576.65;109355;1273;22383;-79
2022/05/18 04:30:19;;;;;;;7.20;1.50;;;;;;;7.22;51.99;101575.50;109798;1272;22347;-79
2022/05/18 04:32:46;;;;;;;5.50;1.60;;;;;;;7.26;52.14;101578.22;109810;1273;22408;-80
2022/05/18 04:35:15;;;;;;;3.60;1.50;;;;;;;7.32;52.03;101580.80;109745;1273;22342;-80
2022/05/18 04:37:42;;;;;;;6.70;1.90;;;;;;;7.32;51.93;101582.93;109655;1271;22436;-79
2022/05/18 04:40:10;;;;;;;2.10;1.40;;;;;;;7.25;51.98;101583.98;108845;1281;22470;-80
2022/05/18 04:42:36;;;;;;;5.80;1.40;;;;;;;7.24;52.22;101586.23;109128;1278;22377;-79
2022/05/18 04:45:06;;;;;;;5.50;1.60;;;;;;;7.28;52.27;101584.77;109285;1278;22520;-83
2022/05/18 04:47:33;;;;;;;5.80;1.30;;;;;;;7.36;52.31;101590.71;108351;1286;22533;-81
2022/05/18 04:49:59;;;;;;;3.40;1.70;;;;;;;7.37;52.42;101591.45;108576;1284;22474;-82
2022/05/18 04:52:26;;;;;;;7.00;1.80;;;;;;;7.43;52.43;101587.71;108322;1283;22480;-82
2022/05/18 04:54:53;;;;;;;5.10;1.80;;;;;;;7.50;52.46;101585.97;108635;1284;22429;-79
2022/05/18 04:57:19;;;;;;;2.20;1.70;;;;;;;7.55;52.47;101589.41;108430;1284;22409;-81
2022/05/18 04:59:47;;;;;;;4.10;2.10;;;;;;;7.60;52.30;101589.33;107947;1290;22966;-79
2022/05/18 05:02:14;;;;;;;3.80;2.00;;;;;;;7.67;52.16;101587.75;107624;1290;22414;-81
2022/05/18 05:04:41;;;;;;;5.00;1.80;;;;;;;7.76;52.05;101589.85;108077;1284;22616;-81
2022/05/18 05:07:08;;;;;;;2.40;1.40;;;;;;;7.81;51.87;101581.19;108980;1281;22493;-80
2022/05/18 05:09:37;;;;;;;5.70;1.70;;;;;;;7.86;51.64;101583.41;109007;1281;22370;-81
2022/05/18 05:12:05;;;;;;;3.20;1.50;;;;;;;7.88;51.56;101582.92;108469;1284;22392;-81
2022/05/18 05:14:35;;;;;;;4.60;1.90;;;;;;;7.95;51.51;101583.94;108452;1284;22398;-75
2022/05/18 05:17:01;;;;;;;2.80;1.60;;;;;;;7.99;51.37;101586.83;108560;1283;22733;-80
2022/05/18 05:19:29;;;;;;;18.00;11.30;;;;;;;8.05;51.27;101591.16;108372;1284;22638;-77
2022/05/18 05:21:55;;;;;;;7.40;3.80;;;;;;;8.11;51.07;101594.98;107849;1290;22545;-76
2022/05/18 05:24:22;;;;;;;2.00;1.60;;;;;;;8.17;50.73;101598.95;107571;1289;22479;-75
2022/05/18 05:26:50;;;;;;;4.80;1.70;;;;;;;8.20;50.62;101597.44;107956;1290;22472;-75
2022/05/18 05:29:17;;;;;;;7.90;1.90;;;;;;;8.30;50.51;101602.89;108031;1284;22539;-75
2022/05/18 05:31:43;;;;;;;1.60;1.50;;;;;;;8.35;50.24;101606.34;108466;1284;22353;-76
2022/05/18 05:34:10;;;;;;;2.90;1.60;;;;;;;8.40;50.05;101608.36;108682;1284;22404;-84
2022/05/18 05:36:36;;;;;;;3.10;1.90;;;;;;;8.46;49.88;101607.25;108641;1284;23148;-77
2022/05/18 05:39:03;;;;;;;4.20;1.20;;;;;;;8.49;49.78;101613.42;108575;1281;22420;-85
2022/05/18 05:41:29;;;;;;;6.70;2.40;;;;;;;8.51;49.74;101616.98;108708;1279;22374;-84
2022/05/18 05:43:57;;;;;;;4.40;1.90;;;;;;;8.54;49.64;101614.25;109394;1277;22295;-83
2022/05/18 05:46:27;;;;;;;15.10;2.00;;;;;;;8.57;49.55;101615.73;109346;1279;23197;-84
2022/05/18 05:48:55;;;;;;;6.00;2.10;;;;;;;8.59;49.49;101622.27;109231;1279;22511;-85
2022/05/18 05:51:26;;;;;;;7.40;2.80;;;;;;;8.65;49.50;101622.72;109327;1278;22552;-85
2022/05/18 05:53:52;;;;;;;5.60;1.50;;;;;;;8.71;49.23;101625.83;109234;1279;22541;-84
2022/05/18 05:56:20;;;;;;;3.70;1.40;;;;;;;8.68;49.03;101627.89;108765;1282;22512;-85
2022/05/18 05:58:48;;;;;;;3.80;2.10;;;;;;;8.66;49.03;101633.30;108793;1278;22608;-84
2022/05/18 06:01:15;;;;;;;2.50;1.60;;;;;;;8.69;49.26;101639.14;109067;1277;22443;-84
2022/05/18 06:03:42;;;;;;;4.50;1.70;;;;;;;8.76;49.14;101640.33;109372;1277;23385;-85
2022/05/18 06:06:11;;;;;;;2.70;1.50;;;;;;;8.83;48.89;101648.36;109382;1277;22537;-83
2022/05/18 06:08:38;;;;;;;7.80;1.70;;;;;;;8.88;48.93;101647.20;109273;1277;22430;-84
2022/05/18 06:11:07;;;;;;;6.70;2.80;;;;;;;8.94;48.69;101644.67;109074;1277;22401;-88
2022/05/18 06:13:33;;;;;;;7.00;2.20;;;;;;;9.01;48.62;101651.48;109301;1273;22499;-84
2022/05/18 06:16:01;;;;;;;5.00;2.90;;;;;;;9.08;48.59;101650.20;109730;1272;22311;-84
2022/05/18 06:18:29;;;;;;;10.70;2.30;;;;;;;9.15;48.61;101656.10;109602;1272;22379;-84
2022/05/18 06:20:56;;;;;;;7.40;1.90;;;;;;;9.20;48.59;101660.94;109713;1273;22315;-83
2022/05/18 06:23:25;;;;;;;1.90;1.50;;;;;;;9.25;48.64;101666.12;109718;1272;22503;-84
2022/05/18 06:25:52;;;;;;;2.30;1.50;;;;;;;9.27;48.27;101669.33;109565;1273;22325;-84
2022/05/18 06:28:18;;;;;;;4.30;2.20;;;;;;;9.26;48.13;101674.23;109671;1273;22375;-85
2022/05/18 06:30:45;;;;;;;3.50;1.50;;;;;;;9.31;48.18;101672.19;109599;1273;22428;-85
2022/05/18 06:33:11;;;;;;;5.30;1.40;;;;;;;9.39;48.12;101674.43;109704;1273;23091;-85
2022/05/18 06:35:38;;;;;;;6.20;1.50;;;;;;;9.35;48.02;101677.01;109255;1278;22376;-84
2022/05/18 06:38:15;;;;;;;3.70;1.20;;;;;;;9.31;48.06;101678.00;109079;1278;22441;-83
2022/05/18 06:43:29;;;;;;;3.40;1.20;;;;;;;9.42;47.91;101684.15;109394;1278;22414;-83
2022/05/18 06:45:55;;;;;;;4.60;2.00;;;;;;;9.45;47.41;101685.45;109381;1278;22404;-84
2022/05/18 06:48:22;;;;;;;2.90;1.20;;;;;;;9.50;47.52;101682.70;109283;1278;22290;-83
2022/05/18 06:51:10;;;;;;;6.80;2.10;;;;;;;9.56;47.22;101676.11;109350;1277;22391;-85
2022/05/18 06:53:36;;;;;;;3.30;1.50;;;;;;;9.60;47.29;101677.76;109464;1273;23150;-85
2022/05/18 06:56:03;;;;;;;5.40;1.00;;;;;;;9.68;47.19;101678.58;109650;1273;23086;-84
2022/05/18 06:58:31;;;;;;;6.10;1.40;;;;;;;9.78;46.96;101674.34;109796;1272;22312;-84
2022/05/18 07:01:01;;;;;;;5.00;1.20;;;;;;;9.81;46.62;101678.61;109700;1273;22328;-85
2022/05/18 07:03:28;;;;;;;3.90;1.70;;;;;;;9.86;46.66;101685.19;109638;1273;22437;-85
2022/05/18 07:05:55;;;;;;;4.40;1.60;;;;;;;9.87;46.60;101687.84;109511;1274;23158;-85
2022/05/18 07:08:21;;;;;;;1.50;0.90;;;;;;;9.91;46.30;101689.48;109799;1273;23157;-85
2022/05/18 07:10:47;;;;;;;6.50;2.10;;;;;;;9.88;46.30;101690.15;109548;1273;22369;-84
2022/05/18 07:13:17;;;;;;;6.10;1.40;;;;;;;9.96;46.46;101693.08;109766;1272;22246;-85
2022/05/18 07:15:45;;;;;;;4.50;1.20;;;;;;;10.08;46.24;101699.41;109688;1273;22382;-84
2022/05/18 07:18:13;;;;;;;3.60;1.80;;;;;;;10.20;46.22;101701.49;109554;1274;22391;-84
2022/05/18 07:20:39;;;;;;;1.70;0.70;;;;;;;10.29;45.63;101702.67;109026;1277;23209;-83
2022/05/18 07:23:06;;;;;;;4.90;1.30;;;;;;;10.30;44.79;101701.98;109378;1277;22382;-83
2022/05/18 07:25:33;;;;;;;1.40;1.30;;;;;;;10.34;44.91;101703.80;109347;1277;22350;-83
2022/05/18 07:27:59;;;;;;;3.10;1.10;;;;;;;10.47;44.79;101701.86;109341;1277;22379;-85
2022/05/18 07:30:47;;;;;;;3.40;1.20;;;;;;;10.62;44.69;101694.65;109337;1278;22221;-82
2022/05/18 07:33:13;;;;;;;2.70;1.10;;;;;;;10.74;44.61;101694.96;109498;1278;22986;-83
2022/05/18 07:35:39;;;;;;;5.40;1.70;;;;;;;10.84;44.37;101698.97;109695;1279;22402;-83
2022/05/18 07:38:06;;;;;;;4.60;1.20;;;;;;;10.97;44.51;101698.55;108894;1283;23126;-83
2022/05/18 07:40:53;;;;;;;2.60;1.00;;;;;;;11.12;44.17;101693.23;108710;1284;22373;-82
2022/05/18 07:43:19;;;;;;;1.70;1.00;;;;;;;11.27;44.32;101692.85;108832;1283;22380;-83
2022/05/18 07:45:48;;;;;;;4.80;1.40;;;;;;;11.39;43.70;101694.72;108797;1284;22484;-83
2022/05/18 07:48:19;;;;;;;3.00;1.00;;;;;;;11.49;43.16;101689.33;109039;1281;22878;-84
2022/05/18 07:50:46;;;;;;;5.60;1.00;;;;;;;11.61;42.96;101686.42;108636;1287;22391;-84
2022/05/18 07:53:13;;;;;;;1.40;0.70;;;;;;;11.69;42.37;101684.70;108324;1287;22464;-88
2022/05/18 07:55:40;;;;;;;1.90;1.00;;;;;;;11.68;42.27;101688.77;108611;1284;23025;-84
2022/05/18 07:58:10;;;;;;;5.00;1.20;;;;;;;11.76;42.56;101687.41;108794;1283;22349;-83
2022/05/18 08:00:37;;;;;;;3.70;1.00;;;;;;;11.89;42.46;101686.79;108673;1283;22416;-83
2022/05/18 08:03:03;;;;;;;2.80;0.90;;;;;;;12.08;42.67;101690.09;108698;1281;23344;-83
2022/05/18 08:05:32;;;;;;;2.60;1.10;;;;;;;12.23;42.17;101684.88;109062;1280;22425;-81
2022/05/18 08:08:06;;;;;;;5.30;0.90;;;;;;;12.36;40.93;101683.16;109174;1273;22260;-83
2022/05/18 08:16:04;;;;;;;2.20;0.80;;;;;;;12.76;39.65;101673.75;109624;1272;23015;-83
2022/05/18 08:18:31;;;;;;;3.10;0.80;;;;;;;12.91;39.21;101678.91;109680;1273;23170;-84
2022/05/18 08:20:57;;;;;;;1.80;0.90;;;;;;;13.00;38.71;101677.86;109739;1273;23036;-83
2022/05/18 08:23:25;;;;;;;1.20;0.90;;;;;;;13.05;38.35;101674.88;109607;1273;22230;-84
2022/05/18 08:25:54;;;;;;;2.20;0.80;;;;;;;13.21;38.18;101673.29;109722;1272;22437;-83
2022/05/18 08:28:20;;;;;;;3.10;1.30;;;;;;;13.35;37.99;101672.59;109558;1274;22504;-84
2022/05/18 08:30:47;;;;;;;4.00;0.90;;;;;;;13.48;37.33;101672.59;109612;1273;22425;-84
2022/05/18 08:33:13;;;;;;;2.50;0.80;;;;;;;13.42;36.70;101669.92;109687;1273;22331;-84
2022/05/18 08:35:44;;;;;;;1.40;0.90;;;;;;;13.37;36.97;101673.82;109596;1273;22349;-84
2022/05/18 08:38:11;;;;;;;1.20;0.60;;;;;;;13.46;36.73;101668.34;109755;1273;22350;-84
2022/05/18 08:40:49;;;;;;;2.00;1.00;;;;;;;13.58;36.87;101661.80;109680;1273;22512;-83
2022/05/18 08:43:25;;;;;;;1.70;0.60;;;;;;;13.76;36.61;101669.22;109282;1278;22402;-83
2022/05/18 08:46:13;;;;;;;3.40;0.80;;;;;;;13.95;36.64;101665.10;108869;1278;22392;-83
2022/05/18 08:49:02;;;;;;;4.50;1.00;;;;;;;14.12;36.25;101660.27;109295;1278;22503;-84
2022/05/18 08:51:45;;;;;;;1.30;0.80;;;;;;;14.37;36.43;101659.45;109169;1278;22451;-84
2022/05/18 08:54:22;;;;;;;2.10;0.90;;;;;;;14.58;35.78;101663.61;109314;1278;23052;-84
2022/05/18 08:56:50;;;;;;;2.30;1.00;;;;;;;14.72;34.99;101668.67;109490;1278;22475;-83
2022/05/18 08:59:22;;;;;;;2.40;1.00;;;;;;;14.81;34.60;101662.61;109540;1277;22378;-84
2022/05/18 09:01:51;;;;;;;4.30;1.00;;;;;;;14.97;34.55;101665.88;109709;1272;22434;-83
2022/05/18 09:04:30;;;;;;;1.30;0.90;;;;;;;15.11;34.34;101668.96;109701;1274;22414;-86
2022/05/18 09:07:09;;;;;;;4.00;1.20;;;;;;;15.23;34.02;101668.88;109875;1272;22345;-85
2022/05/18 09:10:12;;;;;;;2.30;0.80;;;;;;;15.38;33.72;101663.78;109745;1273;23157;-83
2022/05/18 09:12:41;;;;;;;6.20;0.90;;;;;;;15.51;33.50;101659.41;109634;1278;22457;-83
2022/05/18 09:15:13;;;;;;;1.80;0.70;;;;;;;15.64;33.40;101662.65;109446;1278;22525;-84
2022/05/18 09:17:56;;;;;;;3.30;0.70;;;;;;;15.80;33.27;101656.45;109668;1277;22607;-82
2022/05/18 09:20:35;;;;;;;2.20;0.80;;;;;;;16.01;33.32;101651.80;109573;1278;22414;-83
2022/05/18 09:23:20;;;;;;;6.40;1.20;;;;;;;16.25;33.26;101649.93;109618;1277;22491;-83
2022/05/18 09:25:55;;;;;;;1.70;1.00;;;;;;;16.39;32.81;101648.87;109602;1278;22366;-83
2022/05/18 09:28:49;;;;;;;2.80;0.90;;;;;;;16.50;32.27;101646.40;109626;1278;23034;-83
2022/05/18 09:31:47;;;;;;;4.20;1.00;;;;;;;16.53;31.58;101653.99;109699;1273;22338;-83
2022/05/18 09:34:20;;;;;;;3.90;1.40;;;;;;;16.46;31.12;101652.14;109870;1272;22378;-83
2022/05/18 09:37:13;;;;;;;4.40;1.30;;;;;;;16.45;31.58;101649.48;109794;1273;22425;-83
2022/05/18 09:39:45;;;;;;;1.60;1.10;;;;;;;16.61;30.77;101647.33;109614;1274;22382;-84
2022/05/18 09:42:16;;;;;;;6.40;1.20;;;;;;;16.54;30.72;101645.46;109792;1273;22396;-84
2022/05/18 09:44:55;;;;;;;4.30;1.00;;;;;;;16.48;31.14;101646.43;109727;1273;22421;-84
2022/05/18 09:47:24;;;;;;;2.80;0.80;;;;;;;16.72;31.65;101644.32;109741;1273;22330;-89
2022/05/18 09:49:59;;;;;;;1.30;0.80;;;;;;;17.01;31.44;101645.67;109148;1277;22554;-83
2022/05/18 09:52:28;;;;;;;3.40;0.90;;;;;;;17.21;31.11;101638.41;109180;1278;22474;-83
2022/05/18 09:55:00;;;;;;;3.60;0.80;;;;;;;17.36;31.09;101641.55;109397;1278;22502;-83
2022/05/18 09:57:35;;;;;;;2.00;0.90;;;;;;;17.47;30.54;101639.76;109205;1279;22399;-83
2022/05/18 10:00:10;;;;;;;3.50;0.70;;;;;;;17.55;30.78;101637.12;108498;1284;22359;-82
2022/05/18 10:08:24;;;;;;;2.20;0.90;;;;;;;18.23;29.73;101631.90;109129;1278;22402;-84
2022/05/18 10:10:56;;;;;;;2.90;0.80;;;;;;;18.36;28.79;101634.13;109429;1279;22629;-83
2022/05/18 10:13:28;;;;;;;4.80;0.80;;;;;;;18.45;28.67;101631.05;109276;1278;22339;-88
2022/05/18 10:16:21;;;;;;;1.20;0.70;;;;;;;18.67;28.23;101629.86;109470;1278;22560;-83
2022/05/18 10:18:59;;;;;;;2.60;0.90;;;;;;;18.58;27.52;101626.14;109639;1274;22383;-83
2022/05/18 10:21:38;;;;;;;4.00;0.90;;;;;;;18.36;27.60;101624.84;109682;1275;22871;-86
2022/05/18 10:24:44;;;;;;;0.90;0.70;;;;;;;18.40;28.50;101625.81;109654;1278;22589;-82
2022/05/18 10:27:23;;;;;;;2.50;0.90;;;;;;;18.69;28.65;101623.92;109633;1277;23013;-83
2022/05/18 10:30:02;;;;;;;4.80;1.00;;;;;;;18.94;28.54;101616.90;109184;1281;23328;-83
2022/05/18 10:32:31;;;;;;;3.30;0.80;;;;;;;19.16;28.16;101614.59;109038;1283;22467;-84
2022/05/18 10:35:00;;;;;;;0.90;0.70;;;;;;;19.26;27.20;101609.19;108904;1283;22488;-82
2022/05/18 10:37:33;;;;;;;3.30;1.10;;;;;;;19.23;27.19;101608.54;108874;1284;22567;-84
2022/05/18 10:40:01;;;;;;;1.40;0.70;;;;;;;19.19;27.09;101607.91;108956;1283;22388;-82
2022/05/18 10:42:44;;;;;;;1.70;0.80;;;;;;;19.35;27.08;101607.50;109238;1281;23054;-84
2022/05/18 10:45:26;;;;;;;2.20;0.90;;;;;;;19.54;26.86;101604.69;109026;1284;22407;-83
2022/05/18 10:47:56;;;;;;;1.80;0.90;;;;;;;19.75;26.64;101601.40;109514;1274;22465;-82
2022/05/18 10:50:36;;;;;;;1.40;0.70;;;;;;;19.96;26.21;101601.70;109866;1274;22279;-82
2022/05/18 10:53:28;;;;;;;2.30;0.70;;;;;;;19.94;25.58;101602.31;109890;1274;22424;-82
2022/05/18 10:55:57;;;;;;;0.90;0.80;;;;;;;19.90;25.84;101601.36;109608;1274;346163;-82
2022/05/18 10:59:11;;;;;;;1.80;0.80;;;;;;;20.14;26.00;101598.52;109914;1273;22401;-82
2022/05/18 11:01:45;;;;;;;0.90;0.70;;;;;;;20.16;25.59;101594.56;109929;1273;22371;-88
2022/05/18 11:04:19;;;;;;;1.70;0.90;;;;;;;20.38;25.60;101596.21;109930;1273;22289;-83
2022/05/18 11:06:45;;;;;;;2.70;0.60;;;;;;;20.29;24.41;101598.27;109833;1273;22470;-82
2022/05/18 11:09:39;;;;;;;4.00;0.80;;;;;;;20.14;23.98;101589.79;109761;1273;22446;-82
2022/05/18 11:12:14;;;;;;;3.80;0.80;;;;;;;19.92;24.29;101585.58;109493;1278;22441;-83
2022/05/18 11:14:51;;;;;;;2.30;0.80;;;;;;;19.97;24.39;101585.23;109538;1278;22411;-83
2022/05/18 11:17:32;;;;;;;2.80;0.90;;;;;;;20.17;24.13;101580.22;109552;1278;22483;-83
2022/05/18 11:20:37;;;;;;;2.10;0.70;;;;;;;20.37;24.36;101578.16;109512;1278;22366;-83
2022/05/18 11:23:21;;;;;;;2.90;0.70;;;;;;;20.81;24.37;101575.70;109169;1278;23154;-82
2022/05/18 11:26:35;;;;;;;1.60;0.50;;;;;;;21.13;24.03;101569.27;109226;1278;22298;-82
2022/05/18 11:29:13;;;;;;;2.40;0.70;;;;;;;21.52;24.08;101568.61;108852;1283;22402;-84
2022/05/18 11:31:52;;;;;;;2.60;0.70;;;;;;;21.69;22.98;101566.20;109454;1278;23306;-82
2022/05/18 11:34:23;;;;;;;1.90;0.90;;;;;;;21.69;22.79;101566.92;109666;1274;22411;-82
2022/05/18 11:37:02;;;;;;;3.00;1.10;;;;;;;21.88;23.05;101563.20;109814;1274;22376;-82
2022/05/18 11:39:59;;;;;;;3.50;0.90;;;;;;;22.22;22.83;101567.29;109830;1274;22781;-82
2022/05/18 11:43:30;;;;;;;2.10;0.90;;;;;;;22.38;22.35;101567.02;109869;1272;22384;-82
2022/05/18 11:46:18;;;;;;;2.50;1.30;;;;;;;22.66;22.17;101560.38;109865;1273;22418;-82
2022/05/18 11:48:48;;;;;;;2.00;0.80;;;;;;;22.71;22.00;101566.96;109848;1273;22470;-82
2022/05/18 11:51:28;;;;;;;2.80;1.00;;;;;;;22.49;21.20;101554.91;109943;1273;22317;-82
2022/05/18 11:53:54;;;;;;;1.50;1.10;;;;;;;22.11;21.40;101559.11;109925;1273;22370;-82
2022/05/18 11:56:40;;;;;;;1.60;0.90;;;;;;;22.08;22.25;101559.21;109840;1273;22348;-84
2022/05/18 11:59:53;;;;;;;0.80;0.60;;;;;;;22.18;21.46;101555.08;109828;1273;22315;-83